SARL/AOL METAR and TAF weather

Enter ICAO airport designator
Station Type Date Time Source
SARL METAR 2019/02/20 23:00 UTC NOAA

SARL 202300Z 00000KT 9999 FEW030TCU 32/22 Q1008


Station Type Date Time Source
SARL Decoded METAR 2019/02/20 23:00 UTC NOAA

Paso De Los Libres Aerodrome, Argentina (SARL) 29-41S 057-09W 70M
Feb 20, 2019 - 06:00 PM EST / 2019.02.20 2300 UTC
Wind: Calm:0
Visibility: greater than 7 mile(s):0
Sky conditions: mostly clear
Weather: Towering cumulus clouds observed
Temperature: 89 F (32 C)
Heat index: 95.0 F (35.0 C):1
Dew Point: 71 F (22 C)
Relative Humidity: 55%
Pressure (altimeter): 29.77 in. Hg (1008 hPa)
ob: SARL 202300Z 00000KT 9999 FEW030TCU 32/22 Q1008
cycle: 23

Station Type Date Time Source
SARL TAF UTC NOAA

Error!


Example: see airport list